createdAt,value
2022-12-29T00:00:01.494Z,51.66
2022-12-29T00:02:28.358Z,51.65
2022-12-29T00:04:55.128Z,51.30
2022-12-29T00:07:21.864Z,51.35
2022-12-29T00:09:48.552Z,51.46
2022-12-29T00:12:15.380Z,51.35
2022-12-29T00:15:00.580Z,51.68
2022-12-29T00:17:27.490Z,51.51
2022-12-29T00:20:12.816Z,51.40
2022-12-29T00:22:59.335Z,51.31
2022-12-29T00:25:44.647Z,51.66
2022-12-29T00:28:29.878Z,51.76
2022-12-29T00:31:21.934Z,51.29
2022-12-29T00:34:07.704Z,51.23
2022-12-29T00:36:38.335Z,51.91
2022-12-29T00:39:32.575Z,51.74
2022-12-29T00:42:26.834Z,51.63
2022-12-29T00:44:53.697Z,51.98
2022-12-29T00:47:20.357Z,52.21
2022-12-29T00:49:47.117Z,52.10
2022-12-29T00:52:14.750Z,51.92
2022-12-29T00:54:42.338Z,51.93
2022-12-29T00:57:10.501Z,52.08
2022-12-29T00:59:38.693Z,52.50
2022-12-29T01:02:05.593Z,52.74
2022-12-29T01:04:32.566Z,52.61
2022-12-29T01:06:59.777Z,52.61
2022-12-29T01:09:45.003Z,52.81
2022-12-29T01:12:12.510Z,52.52
2022-12-29T01:14:39.846Z,52.63
2022-12-29T01:17:07.009Z,52.83
2022-12-29T01:19:34.374Z,52.95
2022-12-29T01:22:01.232Z,53.07
2022-12-29T01:24:28.621Z,53.06
2022-12-29T01:26:55.659Z,53.03
2022-12-29T01:29:22.898Z,53.54
2022-12-29T01:31:51.023Z,53.64
2022-12-29T01:34:18.761Z,53.69
2022-12-29T01:36:45.569Z,53.48
2022-12-29T01:39:13.305Z,53.65
2022-12-29T01:41:41.521Z,53.66
2022-12-29T01:44:40.691Z,53.82
2022-12-29T01:47:08.547Z,53.76
2022-12-29T01:49:35.781Z,53.59
2022-12-29T01:52:06.209Z,53.70
2022-12-29T01:54:39.801Z,54.09
2022-12-29T01:57:10.181Z,53.99
2022-12-29T01:59:41.282Z,54.27
2022-12-29T02:02:08.622Z,54.11
2022-12-29T02:04:36.237Z,54.42
2022-12-29T02:07:05.730Z,54.13
2022-12-29T02:09:32.461Z,53.90
2022-12-29T02:11:59.531Z,54.21
2022-12-29T02:14:26.358Z,54.21
2022-12-29T02:17:08.843Z,53.99
2022-12-29T02:19:54.307Z,53.96
2022-12-29T02:22:43.080Z,54.29
2022-12-29T02:25:19.068Z,53.83
2022-12-29T02:27:56.588Z,53.77
2022-12-29T02:30:28.234Z,53.90
2022-12-29T02:33:20.959Z,53.96
2022-12-29T02:35:55.878Z,53.74
2022-12-29T02:38:28.280Z,53.60
2022-12-29T02:40:55.025Z,53.80
2022-12-29T02:43:38.393Z,53.77
2022-12-29T02:46:14.386Z,53.42
2022-12-29T02:49:02.875Z,53.49
2022-12-29T02:51:45.085Z,53.46
2022-12-29T02:54:31.011Z,53.54
2022-12-29T02:56:57.798Z,53.51
2022-12-29T02:59:24.799Z,53.24
2022-12-29T03:02:23.907Z,53.17
2022-12-29T03:05:04.856Z,53.53
2022-12-29T03:07:43.555Z,53.27
2022-12-29T03:10:38.368Z,53.35
2022-12-29T03:13:55.079Z,53.09
2022-12-29T03:16:48.914Z,53.39
2022-12-29T03:19:49.005Z,53.03
2022-12-29T03:22:29.106Z,52.90
2022-12-29T03:25:23.726Z,52.82
2022-12-29T03:27:54.629Z,53.08
2022-12-29T03:30:21.800Z,52.94
2022-12-29T03:32:56.028Z,52.79
2022-12-29T03:35:27.254Z,52.73
2022-12-29T03:38:15.955Z,52.76
2022-12-29T03:40:48.718Z,52.89
2022-12-29T03:43:15.960Z,53.05
2022-12-29T03:45:42.791Z,52.96
2022-12-29T03:48:10.107Z,52.69
2022-12-29T03:50:40.852Z,52.47
2022-12-29T03:53:08.027Z,52.55
2022-12-29T03:55:34.786Z,52.75
2022-12-29T03:58:01.844Z,52.38
2022-12-29T04:00:54.744Z,52.30
2022-12-29T04:03:21.848Z,52.41
2022-12-29T04:05:48.653Z,52.09
2022-12-29T04:08:15.631Z,52.42
2022-12-29T04:10:42.938Z,52.45
2022-12-29T04:13:09.754Z,52.02
2022-12-29T04:15:36.639Z,51.80
2022-12-29T04:18:03.535Z,52.08
2022-12-29T04:20:48.862Z,51.88
2022-12-29T04:23:15.916Z,51.78
2022-12-29T04:25:46.220Z,51.78
2022-12-29T04:28:14.975Z,51.63
2022-12-29T04:30:50.753Z,51.65
2022-12-29T04:33:26.506Z,51.65
2022-12-29T04:35:55.018Z,51.64
2022-12-29T04:38:24.082Z,51.82
2022-12-29T04:40:52.436Z,51.39
2022-12-29T04:43:23.269Z,51.70
2022-12-29T04:46:08.803Z,51.66
2022-12-29T04:48:43.632Z,51.51
2022-12-29T04:51:33.595Z,50.97
2022-12-29T04:54:00.405Z,51.03
2022-12-29T04:56:31.952Z,51.04
2022-12-29T04:58:58.773Z,50.69
2022-12-29T05:01:25.584Z,51.08
2022-12-29T05:03:53.102Z,50.47
2022-12-29T05:06:20.276Z,50.54
2022-12-29T05:08:47.246Z,50.46
2022-12-29T05:11:14.987Z,50.53
2022-12-29T05:13:46.689Z,50.16
2022-12-29T05:16:14.251Z,50.04
2022-12-29T05:18:41.504Z,50.50
2022-12-29T05:21:08.885Z,50.16
2022-12-29T05:23:35.763Z,49.94
2022-12-29T05:26:06.046Z,50.39
2022-12-29T05:28:48.838Z,49.86
2022-12-29T05:31:19.312Z,50.24
2022-12-29T05:33:46.557Z,50.13
2022-12-29T05:36:13.500Z,50.18
2022-12-29T05:38:45.846Z,49.63
2022-12-29T05:41:13.445Z,49.59
2022-12-29T05:44:00.394Z,49.98
2022-12-29T05:46:49.290Z,49.50
2022-12-29T05:49:16.863Z,49.54
2022-12-29T05:52:01.996Z,49.58
2022-12-29T05:54:29.561Z,49.53
2022-12-29T05:56:58.544Z,49.52
2022-12-29T05:59:25.426Z,49.59
2022-12-29T06:01:54.034Z,49.65
2022-12-29T06:04:21.011Z,49.86
2022-12-29T06:06:48.282Z,49.67
2022-12-29T06:09:24.829Z,50.11
2022-12-29T06:11:53.679Z,49.98
2022-12-29T06:14:20.316Z,49.97
2022-12-29T06:16:47.934Z,49.65
2022-12-29T06:19:14.676Z,50.02
2022-12-29T06:21:41.451Z,50.02
2022-12-29T06:24:09.695Z,49.86
2022-12-29T06:26:38.038Z,49.62
2022-12-29T06:29:04.738Z,49.67
2022-12-29T06:31:31.832Z,49.64
2022-12-29T06:34:00.354Z,49.95
2022-12-29T06:36:30.393Z,49.95
2022-12-29T06:38:57.116Z,49.67
2022-12-29T06:41:29.981Z,49.74
2022-12-29T06:44:22.740Z,49.97
2022-12-29T06:46:58.555Z,49.84
2022-12-29T06:49:25.280Z,50.22
2022-12-29T06:51:52.060Z,50.11
2022-12-29T06:54:18.887Z,50.02
2022-12-29T06:56:45.600Z,50.12
2022-12-29T06:59:12.445Z,49.75
2022-12-29T07:01:39.250Z,49.81
2022-12-29T07:04:06.237Z,50.32
2022-12-29T07:06:32.929Z,50.41
2022-12-29T07:08:59.773Z,50.37
2022-12-29T07:11:26.740Z,50.36
2022-12-29T07:13:53.494Z,50.57
2022-12-29T07:16:21.235Z,50.45
2022-12-29T07:18:48.041Z,50.49
2022-12-29T07:21:14.710Z,50.50
2022-12-29T07:23:41.956Z,50.56
2022-12-29T07:26:12.253Z,50.49
2022-12-29T07:28:39.672Z,50.44
2022-12-29T07:31:07.405Z,50.28
2022-12-29T07:33:34.275Z,50.79
2022-12-29T07:36:01.170Z,50.76
2022-12-29T07:38:27.873Z,50.89
2022-12-29T07:40:58.078Z,50.77
2022-12-29T07:43:24.961Z,50.67
2022-12-29T07:46:53.455Z,51.01
2022-12-29T07:48:58.969Z,50.36
2022-12-29T07:51:25.611Z,50.81
2022-12-29T07:53:52.372Z,50.82
2022-12-29T07:56:19.101Z,50.91
2022-12-29T07:58:45.876Z,50.95
2022-12-29T08:01:12.568Z,51.05
2022-12-29T08:03:42.306Z,51.02
2022-12-29T08:06:12.942Z,50.89
2022-12-29T08:08:39.585Z,50.72
2022-12-29T08:11:06.277Z,50.79
2022-12-29T08:13:33.734Z,50.86
2022-12-29T08:16:00.884Z,50.98
2022-12-29T08:18:27.671Z,51.06
2022-12-29T08:20:55.863Z,51.04
2022-12-29T08:23:22.867Z,50.98
2022-12-29T08:25:58.433Z,51.48
2022-12-29T08:28:25.223Z,51.44
2022-12-29T08:30:52.031Z,51.29
2022-12-29T08:33:19.084Z,51.86
2022-12-29T08:35:45.936Z,51.67
2022-12-29T08:38:12.794Z,51.37
2022-12-29T08:40:39.476Z,51.46
2022-12-29T08:43:06.336Z,51.43
2022-12-29T08:45:33.337Z,51.42
2022-12-29T08:48:00.151Z,51.81
2022-12-29T08:50:27.011Z,51.63
2022-12-29T08:52:53.748Z,52.22
2022-12-29T08:55:20.459Z,51.98
2022-12-29T08:57:47.691Z,52.27
2022-12-29T09:00:17.665Z,52.02
2022-12-29T09:02:45.203Z,51.98
2022-12-29T09:05:12.122Z,52.41
2022-12-29T09:07:39.391Z,52.44
2022-12-29T09:10:06.381Z,52.25
2022-12-29T09:12:36.373Z,52.27
2022-12-29T09:15:04.382Z,52.50
2022-12-29T09:17:46.608Z,52.40
2022-12-29T09:20:15.951Z,52.37
2022-12-29T09:22:43.962Z,51.98
2022-12-29T09:25:11.419Z,52.44
2022-12-29T09:27:38.401Z,52.33
2022-12-29T09:30:07.468Z,52.41
2022-12-29T09:32:36.852Z,51.93
2022-12-29T09:35:06.104Z,51.93
2022-12-29T09:37:32.940Z,52.41
2022-12-29T09:39:59.944Z,52.33
2022-12-29T09:42:38.570Z,52.58
2022-12-29T09:45:21.686Z,52.39
2022-12-29T09:47:48.564Z,52.87
2022-12-29T09:50:54.452Z,52.65
2022-12-29T09:53:31.204Z,53.03
2022-12-29T09:56:01.468Z,53.23
2022-12-29T09:58:50.019Z,53.66
2022-12-29T10:01:35.020Z,53.83
2022-12-29T10:04:08.906Z,53.60
2022-12-29T10:06:56.468Z,53.76
2022-12-29T10:09:32.640Z,53.95
2022-12-29T10:12:02.313Z,54.35
2022-12-29T10:15:04.033Z,54.37
2022-12-29T10:18:15.828Z,54.63
2022-12-29T10:20:52.900Z,54.21
2022-12-29T10:23:36.557Z,54.54
2022-12-29T10:26:04.180Z,54.72
2022-12-29T10:28:34.567Z,54.66
2022-12-29T10:31:08.686Z,54.55
2022-12-29T10:33:40.609Z,54.89
2022-12-29T10:36:40.515Z,54.68
2022-12-29T10:39:31.487Z,54.94
2022-12-29T10:42:09.907Z,54.90
2022-12-29T10:44:36.858Z,54.60
2022-12-29T10:47:19.006Z,54.98
2022-12-29T10:49:48.463Z,54.94
2022-12-29T10:52:17.405Z,54.96
2022-12-29T10:54:54.382Z,55.17
2022-12-29T10:57:36.289Z,54.84
2022-12-29T11:00:13.472Z,55.12
2022-12-29T11:03:08.256Z,54.81
2022-12-29T11:06:12.227Z,55.09
2022-12-29T11:09:14.037Z,55.02
2022-12-29T11:11:40.812Z,54.71
2022-12-29T11:14:22.852Z,55.04
2022-12-29T11:16:59.040Z,54.76
2022-12-29T11:19:39.060Z,54.90
2022-12-29T11:22:21.545Z,54.73
2022-12-29T11:24:48.690Z,54.93
2022-12-29T11:27:26.821Z,54.98
2022-12-29T11:29:54.761Z,54.93
2022-12-29T11:32:29.090Z,54.80
2022-12-29T11:34:58.767Z,55.07
2022-12-29T11:37:30.057Z,55.28
2022-12-29T11:39:57.840Z,55.17
2022-12-29T11:42:43.126Z,55.26
2022-12-29T11:45:17.470Z,55.18
2022-12-29T11:47:46.735Z,55.15
2022-12-29T11:50:20.322Z,55.09
2022-12-29T11:52:47.354Z,55.31
2022-12-29T11:55:23.010Z,55.76
2022-12-29T11:57:51.314Z,55.66
2022-12-29T12:00:20.997Z,55.69
2022-12-29T12:03:02.287Z,55.79
2022-12-29T12:05:46.121Z,55.91
2022-12-29T12:08:33.127Z,55.69
2022-12-29T12:11:07.631Z,55.88
2022-12-29T12:14:12.148Z,56.06
2022-12-29T12:17:24.608Z,56.47
2022-12-29T12:20:06.064Z,56.06
2022-12-29T12:22:36.798Z,56.48
2022-12-29T12:25:10.769Z,56.27
2022-12-29T12:27:42.562Z,56.43
2022-12-29T12:30:12.182Z,56.45
2022-12-29T12:32:44.516Z,56.54
2022-12-29T12:35:27.374Z,56.48
2022-12-29T12:38:14.321Z,56.79
2022-12-29T12:40:50.051Z,56.58
2022-12-29T12:43:58.227Z,56.64
2022-12-29T12:46:37.310Z,56.91
2022-12-29T12:49:28.865Z,56.90
2022-12-29T12:52:07.516Z,56.52
2022-12-29T12:54:34.180Z,56.74
2022-12-29T12:57:14.181Z,56.96
2022-12-29T12:59:48.155Z,56.64
2022-12-29T13:02:39.628Z,56.51
2022-12-29T13:05:28.557Z,56.61
2022-12-29T13:08:19.550Z,56.63
2022-12-29T13:10:53.490Z,56.38
2022-12-29T13:13:47.780Z,56.72
2022-12-29T13:16:27.235Z,56.55
2022-12-29T13:18:59.979Z,56.43
2022-12-29T13:21:35.972Z,56.63
2022-12-29T13:24:11.964Z,56.70
2022-12-29T13:26:49.265Z,56.71
2022-12-29T13:29:31.620Z,56.87
2022-12-29T13:32:25.993Z,56.84
2022-12-29T13:34:56.217Z,56.87
2022-12-29T13:37:27.572Z,56.62
2022-12-29T13:39:59.051Z,56.48
2022-12-29T13:42:26.707Z,56.46
2022-12-29T13:45:03.841Z,56.69
2022-12-29T13:47:36.575Z,56.83
2022-12-29T13:50:05.887Z,56.50
2022-12-29T13:52:51.426Z,56.55
2022-12-29T13:55:27.383Z,56.84
2022-12-29T13:58:12.384Z,57.14
2022-12-29T14:01:08.357Z,56.81
2022-12-29T14:04:02.602Z,56.47
2022-12-29T14:06:31.429Z,56.26
2022-12-29T14:09:02.655Z,56.56
2022-12-29T14:11:49.664Z,56.90
2022-12-29T14:14:26.617Z,56.61
2022-12-29T14:16:54.069Z,56.40
2022-12-29T14:19:27.963Z,56.73
2022-12-29T14:22:05.454Z,56.49
2022-12-29T14:24:41.038Z,56.38
2022-12-29T14:27:10.679Z,56.52
2022-12-29T14:29:40.129Z,56.47
2022-12-29T14:32:21.782Z,56.96
2022-12-29T14:34:52.646Z,56.43
2022-12-29T14:37:27.529Z,56.55
2022-12-29T14:40:23.989Z,56.69
2022-12-29T14:42:52.908Z,56.61
2022-12-29T14:45:19.764Z,56.85
2022-12-29T14:47:51.392Z,56.80
2022-12-29T14:50:25.698Z,56.94
2022-12-29T14:53:04.368Z,56.80
2022-12-29T14:56:09.789Z,57.06
2022-12-29T14:58:52.948Z,57.12
2022-12-29T15:01:44.530Z,56.77
2022-12-29T15:04:18.539Z,57.05
2022-12-29T15:06:46.987Z,56.81
2022-12-29T15:09:24.547Z,56.79
2022-12-29T15:11:57.057Z,56.63
2022-12-29T15:14:39.177Z,57.14
2022-12-29T15:17:28.107Z,56.78
2022-12-29T15:19:56.090Z,56.70
2022-12-29T15:22:23.025Z,56.86
2022-12-29T15:24:52.987Z,57.08
2022-12-29T15:27:25.216Z,56.73
2022-12-29T15:30:03.077Z,57.08
2022-12-29T15:32:40.241Z,56.85
2022-12-29T15:35:24.084Z,56.77
2022-12-29T15:37:50.949Z,56.94
2022-12-29T15:40:32.301Z,57.10
2022-12-29T15:43:14.137Z,57.43
2022-12-29T15:45:41.001Z,57.32
2022-12-29T15:48:16.697Z,57.32
2022-12-29T15:50:44.173Z,57.02
2022-12-29T15:53:20.811Z,57.09
2022-12-29T15:55:48.783Z,57.08
2022-12-29T15:58:24.638Z,57.22
2022-12-29T16:00:57.936Z,57.43
2022-12-29T16:03:26.526Z,57.29
2022-12-29T16:05:55.996Z,57.20
2022-12-29T16:08:43.049Z,57.51
2022-12-29T16:11:29.087Z,57.46
2022-12-29T16:13:56.828Z,56.99
2022-12-29T16:16:36.697Z,57.50
2022-12-29T16:19:33.735Z,57.38
2022-12-29T16:22:01.950Z,57.60
2022-12-29T16:24:32.224Z,57.69
2022-12-29T16:27:21.709Z,57.50
2022-12-29T16:29:50.456Z,57.25
2022-12-29T16:32:29.064Z,57.22
2022-12-29T16:35:14.370Z,57.20
2022-12-29T16:37:41.634Z,57.49
2022-12-29T16:40:23.884Z,57.36
2022-12-29T16:42:52.488Z,57.55
2022-12-29T16:45:19.187Z,57.45
2022-12-29T16:47:50.687Z,57.59
2022-12-29T16:50:28.262Z,57.70
2022-12-29T16:52:55.256Z,57.90
2022-12-29T16:55:21.973Z,57.66
2022-12-29T16:57:50.626Z,57.69
2022-12-29T17:00:22.753Z,57.56
2022-12-29T17:02:50.599Z,57.59
2022-12-29T17:05:19.080Z,57.61
2022-12-29T17:07:46.841Z,57.64
2022-12-29T17:10:16.440Z,58.12
2022-12-29T17:12:44.660Z,57.71
2022-12-29T17:15:17.409Z,57.90
2022-12-29T17:17:47.644Z,58.07
2022-12-29T17:20:19.368Z,57.76
2022-12-29T17:22:46.712Z,57.73
2022-12-29T17:25:16.722Z,58.04
2022-12-29T17:27:56.253Z,58.13
2022-12-29T17:30:29.708Z,57.70
2022-12-29T17:33:04.896Z,57.77
2022-12-29T17:35:31.677Z,57.86
2022-12-29T17:37:58.355Z,58.28
2022-12-29T17:40:28.233Z,58.52
2022-12-29T17:42:57.404Z,57.91
2022-12-29T17:45:25.243Z,57.91
2022-12-29T17:47:51.990Z,57.89
2022-12-29T17:50:21.943Z,58.16
2022-12-29T17:52:57.417Z,58.20
2022-12-29T17:55:32.820Z,58.31
2022-12-29T17:58:16.762Z,58.43
2022-12-29T18:00:43.551Z,57.99
2022-12-29T18:03:29.513Z,58.29
2022-12-29T18:05:56.744Z,58.27
2022-12-29T18:08:23.517Z,58.12
2022-12-29T18:10:54.339Z,57.94
2022-12-29T18:13:28.989Z,57.99
2022-12-29T18:16:00.656Z,58.31
2022-12-29T18:18:28.039Z,58.31
2022-12-29T18:20:56.884Z,57.71
2022-12-29T18:23:25.809Z,57.94
2022-12-29T18:25:59.343Z,58.23
2022-12-29T18:28:26.738Z,58.01
2022-12-29T18:30:54.294Z,57.92
2022-12-29T18:33:25.024Z,58.18
2022-12-29T18:36:04.855Z,58.15
2022-12-29T18:38:31.961Z,57.99
2022-12-29T18:40:59.308Z,57.67
2022-12-29T18:43:26.221Z,57.97
2022-12-29T18:45:52.913Z,57.64
2022-12-29T18:48:20.187Z,57.62
2022-12-29T18:50:49.876Z,58.05
2022-12-29T18:53:26.582Z,58.14
2022-12-29T18:55:54.725Z,58.15
2022-12-29T18:58:21.382Z,57.94
2022-12-29T19:00:48.256Z,57.90
2022-12-29T19:03:17.796Z,57.85
2022-12-29T19:05:46.025Z,57.83
2022-12-29T19:08:13.402Z,57.73
2022-12-29T19:10:41.028Z,57.65
2022-12-29T19:13:09.688Z,57.68
2022-12-29T19:15:40.284Z,57.59
2022-12-29T19:20:56.878Z,57.71
2022-12-29T19:23:25.244Z,57.82
2022-12-29T19:25:53.220Z,57.64
2022-12-29T19:28:26.895Z,57.84
2022-12-29T19:30:57.422Z,57.60
2022-12-29T19:33:24.272Z,57.57
2022-12-29T19:35:52.185Z,57.20
2022-12-29T19:38:19.810Z,57.41
2022-12-29T19:40:48.772Z,57.81
2022-12-29T19:43:15.634Z,57.49
2022-12-29T19:45:43.793Z,57.74
2022-12-29T19:48:16.846Z,57.81
2022-12-29T19:50:44.290Z,57.63
2022-12-29T19:53:11.585Z,57.39
2022-12-29T19:55:42.433Z,57.60
2022-12-29T19:58:09.211Z,57.43
2022-12-29T20:00:35.974Z,57.65
2022-12-29T20:03:02.909Z,57.33
2022-12-29T20:05:29.576Z,57.32
2022-12-29T20:07:56.274Z,57.48
2022-12-29T20:10:22.992Z,57.67
2022-12-29T20:12:49.655Z,57.64
2022-12-29T20:15:16.351Z,57.68
2022-12-29T20:18:12.312Z,57.51
2022-12-29T20:20:30.108Z,57.57
2022-12-29T20:22:57.865Z,57.38
2022-12-29T20:28:11.532Z,57.32
2022-12-29T20:30:38.296Z,57.70
2022-12-29T20:33:08.525Z,57.29
2022-12-29T20:35:36.633Z,57.30
2022-12-29T20:38:04.057Z,57.28
2022-12-29T20:40:30.775Z,57.56
2022-12-29T20:42:57.490Z,57.44
2022-12-29T20:45:24.423Z,57.51
2022-12-29T20:47:51.167Z,57.32
2022-12-29T20:50:18.086Z,57.51
2022-12-29T20:52:44.740Z,57.60
2022-12-29T20:55:11.456Z,57.57
2022-12-29T20:58:21.930Z,57.23
2022-12-29T21:00:25.733Z,57.21
2022-12-29T21:02:53.141Z,57.37
2022-12-29T21:05:24.504Z,57.50
2022-12-29T21:07:52.991Z,57.51
2022-12-29T21:10:20.085Z,57.51
2022-12-29T21:12:47.751Z,57.19
2022-12-29T21:15:15.662Z,57.13
2022-12-29T21:17:43.601Z,57.13
2022-12-29T21:20:19.999Z,57.13
2022-12-29T21:22:47.844Z,57.36
2022-12-29T21:25:14.733Z,57.69
2022-12-29T21:27:44.639Z,57.57
2022-12-29T21:30:12.481Z,57.38
2022-12-29T21:32:39.844Z,57.35
2022-12-29T21:35:07.538Z,57.29
2022-12-29T21:37:34.756Z,57.25
2022-12-29T21:40:02.284Z,57.65
2022-12-29T21:42:29.049Z,57.64
2022-12-29T21:45:21.025Z,57.74
2022-12-29T21:48:07.405Z,57.60
2022-12-29T21:50:57.684Z,57.60
2022-12-29T21:53:37.689Z,57.34
2022-12-29T21:56:04.777Z,57.25
2022-12-29T21:59:04.078Z,57.23
2022-12-29T22:01:51.167Z,57.15
2022-12-29T22:04:38.195Z,57.12
2022-12-29T22:07:25.090Z,57.57
2022-12-29T22:10:10.673Z,57.29
2022-12-29T22:12:56.373Z,57.61
2022-12-29T22:15:23.875Z,57.58
2022-12-29T22:17:52.552Z,57.19
2022-12-29T22:20:21.655Z,57.60
2022-12-29T22:22:48.529Z,57.44
2022-12-29T22:25:15.371Z,57.18
2022-12-29T22:27:42.078Z,57.25
2022-12-29T22:30:09.118Z,57.47
2022-12-29T22:32:35.882Z,57.63
2022-12-29T22:35:07.733Z,57.17
2022-12-29T22:37:35.982Z,57.81
2022-12-29T22:40:03.863Z,57.49
2022-12-29T22:42:30.628Z,57.31
2022-12-29T22:44:57.324Z,57.33
2022-12-29T22:47:24.053Z,57.64
2022-12-29T22:49:50.747Z,57.75
2022-12-29T22:52:17.521Z,57.70
2022-12-29T22:54:44.188Z,57.43
2022-12-29T22:57:11.066Z,57.43
2022-12-29T22:59:37.916Z,57.75
2022-12-29T23:02:04.752Z,57.63
2022-12-29T23:07:18.435Z,57.42
2022-12-29T23:09:45.145Z,57.51
2022-12-29T23:12:11.868Z,57.56
2022-12-29T23:14:38.889Z,57.13
2022-12-29T23:17:05.829Z,57.51
2022-12-29T23:19:32.559Z,57.15
2022-12-29T23:21:59.299Z,57.52
2022-12-29T23:24:25.945Z,57.33
2022-12-29T23:26:52.753Z,57.48
2022-12-29T23:29:19.980Z,57.46
2022-12-29T23:31:47.634Z,57.44
2022-12-29T23:34:15.996Z,57.02
2022-12-29T23:36:43.089Z,57.18
2022-12-29T23:39:10.752Z,56.86
2022-12-29T23:41:37.653Z,56.87
2022-12-29T23:44:04.431Z,57.16
2022-12-29T23:46:31.431Z,56.72
2022-12-29T23:48:58.542Z,56.85
2022-12-29T23:51:25.420Z,56.99
2022-12-29T23:53:52.129Z,56.97
2022-12-29T23:56:21.633Z,57.22
2022-12-29T23:58:49.343Z,56.77
